createdAt,value
2023-01-09T00:01:29.903Z,1.30
2023-01-09T00:03:57.926Z,1.15
2023-01-09T00:06:25.856Z,1.33
2023-01-09T00:08:53.722Z,6.30
2023-01-09T00:11:21.750Z,1.30
2023-01-09T00:13:49.820Z,1.50
2023-01-09T00:16:18.368Z,1.40
2023-01-09T00:18:46.408Z,2.10
2023-01-09T00:21:14.828Z,2.22
2023-01-09T00:23:42.888Z,2.80
2023-01-09T00:26:18.489Z,2.60
2023-01-09T00:28:51.477Z,1.50
2023-01-09T00:31:20.095Z,1.48
2023-01-09T00:34:09.311Z,1.60
2023-01-09T00:36:37.436Z,1.45
2023-01-09T00:39:06.098Z,1.55
2023-01-09T00:41:42.417Z,2.22
2023-01-09T00:44:20.779Z,1.38
2023-01-09T00:46:54.728Z,1.67
2023-01-09T00:49:23.122Z,1.55
2023-01-09T00:51:51.253Z,2.63
2023-01-09T00:54:20.077Z,1.47
2023-01-09T00:56:48.429Z,1.40
2023-01-09T00:59:16.296Z,2.70
2023-01-09T01:01:44.241Z,1.58
2023-01-09T01:04:30.805Z,2.85
2023-01-09T01:07:17.298Z,1.27
2023-01-09T01:09:45.152Z,2.08
2023-01-09T01:12:13.110Z,1.40
2023-01-09T01:14:41.110Z,3.75
2023-01-09T01:17:09.164Z,1.52
2023-01-09T01:19:37.246Z,2.75
2023-01-09T01:22:05.247Z,1.73
2023-01-09T01:24:33.327Z,4.55
2023-01-09T01:27:01.248Z,4.10
2023-01-09T01:29:29.176Z,1.55
2023-01-09T01:31:57.225Z,4.10
2023-01-09T01:34:25.362Z,2.88
2023-01-09T01:36:53.304Z,2.55
2023-01-09T01:39:21.278Z,1.45
2023-01-09T01:41:49.171Z,2.35
2023-01-09T01:45:10.765Z,2.08
2023-01-09T01:48:00.433Z,2.38
2023-01-09T01:50:39.864Z,2.55
2023-01-09T01:53:24.884Z,1.60
2023-01-09T01:56:07.159Z,1.83
2023-01-09T01:58:42.536Z,2.20
2023-01-09T02:01:11.018Z,1.88
2023-01-09T02:03:40.283Z,1.42
2023-01-09T02:06:09.703Z,1.23
2023-01-09T02:08:37.812Z,2.13
2023-01-09T02:11:06.998Z,2.80
2023-01-09T02:13:38.734Z,1.52
2023-01-09T02:16:32.179Z,1.13
2023-01-09T02:19:36.036Z,1.20
2023-01-09T02:22:11.995Z,2.10
2023-01-09T02:25:08.735Z,1.08
2023-01-09T02:28:09.339Z,5.35
2023-01-09T02:30:46.761Z,0.90
2023-01-09T02:33:29.677Z,1.52
2023-01-09T02:36:27.420Z,1.30
2023-01-09T02:39:08.835Z,1.08
2023-01-09T02:41:55.566Z,3.63
2023-01-09T02:44:30.632Z,2.33
2023-01-09T02:47:30.388Z,2.00
2023-01-09T02:50:09.173Z,1.85
2023-01-09T02:53:08.015Z,1.83
2023-01-09T02:56:20.285Z,1.10
2023-01-09T02:59:09.444Z,1.00
2023-01-09T03:01:52.626Z,1.27
2023-01-09T03:04:36.370Z,1.30
2023-01-09T03:07:48.572Z,1.13
2023-01-09T03:10:29.745Z,3.83
2023-01-09T03:13:00.748Z,1.30
2023-01-09T03:18:01.000Z,1.45
2023-01-09T03:20:30.954Z,1.10
2023-01-09T03:23:02.550Z,0.98
2023-01-09T03:25:31.355Z,1.10
2023-01-09T03:28:05.520Z,1.40
2023-01-09T03:30:35.980Z,2.55
2023-01-09T03:33:04.108Z,1.50
2023-01-09T03:35:31.996Z,1.40
2023-01-09T03:37:59.875Z,2.10
2023-01-09T03:40:27.747Z,1.67
2023-01-09T03:42:55.647Z,1.65
2023-01-09T03:45:23.567Z,1.80
2023-01-09T03:47:53.034Z,3.92
2023-01-09T03:50:21.061Z,1.67
2023-01-09T03:52:48.987Z,1.40
2023-01-09T03:55:16.870Z,2.03
2023-01-09T03:57:45.109Z,1.40
2023-01-09T04:00:13.767Z,1.50
2023-01-09T04:02:42.446Z,2.42
2023-01-09T04:05:10.495Z,1.30
2023-01-09T04:07:38.428Z,3.55
2023-01-09T04:10:07.523Z,3.03
2023-01-09T04:12:35.626Z,5.30
2023-01-09T04:15:03.592Z,5.25
2023-01-09T04:17:31.470Z,1.52
2023-01-09T04:19:59.415Z,1.38
2023-01-09T04:22:27.333Z,3.55
2023-01-09T04:24:55.262Z,3.30
2023-01-09T04:27:23.294Z,3.83
2023-01-09T04:29:51.166Z,1.67
2023-01-09T04:32:18.988Z,3.20
2023-01-09T04:34:46.838Z,3.10
2023-01-09T04:37:14.900Z,2.03
2023-01-09T04:39:45.914Z,2.00
2023-01-09T04:42:13.991Z,3.90
2023-01-09T04:44:41.821Z,2.63
2023-01-09T04:47:09.778Z,3.10
2023-01-09T04:49:37.591Z,6.53
2023-01-09T04:52:05.751Z,5.68
2023-01-09T04:54:34.473Z,2.50
2023-01-09T04:57:02.411Z,3.13
2023-01-09T04:59:30.283Z,2.60
2023-01-09T05:01:59.387Z,2.47
2023-01-09T05:04:27.411Z,2.00
2023-01-09T05:06:55.359Z,2.22
2023-01-09T05:09:23.250Z,3.25
2023-01-09T05:11:51.367Z,2.58
2023-01-09T05:14:19.550Z,4.47
2023-01-09T05:16:48.177Z,3.03
2023-01-09T05:19:16.189Z,7.13
2023-01-09T05:21:44.038Z,5.68
2023-01-09T05:24:11.967Z,3.78
2023-01-09T05:26:39.839Z,6.05
2023-01-09T05:29:07.678Z,3.70
2023-01-09T05:31:35.587Z,2.85
2023-01-09T05:34:03.479Z,2.92
2023-01-09T05:36:31.327Z,14.80
2023-01-09T05:38:59.280Z,3.90
2023-01-09T05:41:27.155Z,7.40
2023-01-09T05:43:55.302Z,4.05
2023-01-09T05:46:24.295Z,9.88
2023-01-09T05:48:52.122Z,3.50
2023-01-09T05:51:20.111Z,6.35
2023-01-09T05:53:48.274Z,7.57
2023-01-09T05:56:16.684Z,3.85
2023-01-09T05:58:44.585Z,5.13
2023-01-09T06:01:12.441Z,6.45
2023-01-09T06:03:40.326Z,8.80
2023-01-09T06:06:08.299Z,5.53
2023-01-09T06:08:36.192Z,8.00
2023-01-09T06:11:04.152Z,5.13
2023-01-09T06:13:32.093Z,7.70
2023-01-09T06:16:00.032Z,4.32
2023-01-09T06:18:28.024Z,4.63
2023-01-09T06:20:55.869Z,11.68
2023-01-09T06:23:23.806Z,3.30
2023-01-09T06:25:51.642Z,3.63
2023-01-09T06:28:19.473Z,12.35
2023-01-09T06:30:52.143Z,6.07
2023-01-09T06:33:20.693Z,2.85
2023-01-09T06:35:48.634Z,2.83
2023-01-09T06:38:16.773Z,6.45
2023-01-09T06:40:44.815Z,7.53
2023-01-09T06:43:12.791Z,6.97
2023-01-09T06:45:41.687Z,6.07
2023-01-09T06:48:10.132Z,3.35
2023-01-09T06:50:38.115Z,3.83
2023-01-09T06:53:06.102Z,4.55
2023-01-09T06:55:34.057Z,6.63
2023-01-09T06:58:01.980Z,4.93
2023-01-09T07:00:31.358Z,5.28
2023-01-09T07:03:00.353Z,6.45
2023-01-09T07:05:28.366Z,8.23
2023-01-09T07:07:57.010Z,3.78
2023-01-09T07:10:24.945Z,10.38
2023-01-09T07:12:52.832Z,6.18
2023-01-09T07:15:20.757Z,3.53
2023-01-09T07:17:51.337Z,5.15
2023-01-09T07:20:19.512Z,5.13
2023-01-09T07:22:47.727Z,7.63
2023-01-09T07:25:15.610Z,6.05
2023-01-09T07:27:43.479Z,9.70
2023-01-09T07:30:11.936Z,5.43
2023-01-09T07:32:41.027Z,4.78
2023-01-09T07:35:09.798Z,4.50
2023-01-09T07:37:37.806Z,5.95
2023-01-09T07:40:06.322Z,6.70
2023-01-09T07:42:34.229Z,10.25
2023-01-09T07:45:02.163Z,7.90
2023-01-09T07:47:30.167Z,3.72
2023-01-09T07:49:58.102Z,4.85
2023-01-09T07:52:25.979Z,4.45
2023-01-09T07:54:53.916Z,4.35
2023-01-09T07:57:22.782Z,8.90
2023-01-09T07:59:50.605Z,3.35
2023-01-09T08:02:18.519Z,5.05
2023-01-09T08:04:46.474Z,5.32
2023-01-09T08:07:14.589Z,5.15
2023-01-09T08:09:42.448Z,8.38
2023-01-09T08:12:10.315Z,9.13
2023-01-09T08:14:38.195Z,16.05
2023-01-09T08:17:06.044Z,11.10
2023-01-09T08:19:33.986Z,10.57
2023-01-09T08:22:01.821Z,11.95
2023-01-09T08:24:30.995Z,10.40
2023-01-09T08:26:59.261Z,8.10
2023-01-09T08:29:30.248Z,4.53
2023-01-09T08:31:58.115Z,4.30
2023-01-09T08:34:26.070Z,5.55
2023-01-09T08:36:54.112Z,6.10
2023-01-09T08:39:22.219Z,5.32
2023-01-09T08:42:28.671Z,3.72
2023-01-09T08:45:15.371Z,4.13
2023-01-09T08:47:43.283Z,5.20
2023-01-09T08:50:11.934Z,5.13
2023-01-09T08:52:39.861Z,2.80
2023-01-09T08:55:08.330Z,10.68
2023-01-09T08:57:36.387Z,3.58
2023-01-09T09:00:04.735Z,3.50
2023-01-09T09:02:32.627Z,3.55
2023-01-09T09:05:00.476Z,2.40
2023-01-09T09:07:28.511Z,4.38
2023-01-09T09:09:56.399Z,2.85
2023-01-09T09:12:24.243Z,3.17
2023-01-09T09:15:10.617Z,6.80
2023-01-09T09:17:40.298Z,3.83
2023-01-09T09:20:10.257Z,3.60
2023-01-09T09:22:38.394Z,9.63
2023-01-09T09:25:06.509Z,3.83
2023-01-09T09:27:36.545Z,2.03
2023-01-09T09:30:04.955Z,3.85
2023-01-09T09:32:32.891Z,3.20
2023-01-09T09:35:00.801Z,2.58
2023-01-09T09:37:28.947Z,12.52
2023-01-09T09:39:58.074Z,1.80
2023-01-09T09:43:21.994Z,2.50
2023-01-09T09:46:04.410Z,4.45
2023-01-09T09:48:51.940Z,3.03
2023-01-09T09:51:50.531Z,2.70
2023-01-09T09:54:55.081Z,3.10
2023-01-09T09:57:36.715Z,1.35
2023-01-09T10:00:06.957Z,2.85
2023-01-09T10:03:00.022Z,2.95
2023-01-09T10:05:34.517Z,2.88
2023-01-09T10:08:16.533Z,6.00
2023-01-09T10:10:52.554Z,6.18
2023-01-09T10:13:43.200Z,8.90
2023-01-09T10:16:22.251Z,8.93
2023-01-09T10:19:19.264Z,1.42
2023-01-09T10:21:50.074Z,2.33
2023-01-09T10:24:52.425Z,2.38
2023-01-09T10:28:21.591Z,1.98
2023-01-09T10:31:12.509Z,2.38
2023-01-09T10:34:13.960Z,2.08
2023-01-09T10:37:16.405Z,1.83
2023-01-09T10:40:22.305Z,4.78
2023-01-09T10:42:58.468Z,1.67
2023-01-09T10:45:41.492Z,4.95
2023-01-09T10:48:35.082Z,6.80
2023-01-09T10:51:15.765Z,3.72
2023-01-09T10:53:49.403Z,1.77
2023-01-09T10:56:25.848Z,1.20
2023-01-09T10:58:55.772Z,2.60
2023-01-09T11:01:38.238Z,3.40
2023-01-09T11:04:29.441Z,2.72
2023-01-09T11:07:23.306Z,4.47
2023-01-09T11:10:09.600Z,3.65
2023-01-09T11:12:37.968Z,2.30
2023-01-09T11:15:28.893Z,2.72
2023-01-09T11:18:20.068Z,6.95
2023-01-09T11:20:48.467Z,7.93
2023-01-09T11:23:33.200Z,5.93
2023-01-09T11:26:02.847Z,5.43
2023-01-09T11:28:30.890Z,2.83
2023-01-09T11:31:01.091Z,4.45
2023-01-09T11:33:37.784Z,3.43
2023-01-09T11:36:13.078Z,7.15
2023-01-09T11:38:57.069Z,2.50
2023-01-09T11:41:35.812Z,2.08
2023-01-09T11:44:05.096Z,4.75
2023-01-09T11:46:40.838Z,3.90
2023-01-09T11:49:20.792Z,2.80
2023-01-09T11:52:20.336Z,2.95
2023-01-09T11:55:05.746Z,2.00
2023-01-09T11:57:34.554Z,2.53
2023-01-09T12:00:20.477Z,3.47
2023-01-09T12:03:25.925Z,4.72
2023-01-09T12:05:55.373Z,2.40
2023-01-09T12:08:29.234Z,3.25
2023-01-09T12:11:37.416Z,4.10
2023-01-09T12:14:35.333Z,6.18
2023-01-09T12:17:28.914Z,2.65
2023-01-09T12:20:29.740Z,5.18
2023-01-09T12:23:30.983Z,3.70
2023-01-09T12:26:21.168Z,2.40
2023-01-09T12:28:58.188Z,2.58
2023-01-09T12:31:39.762Z,2.70
2023-01-09T12:34:20.876Z,1.83
2023-01-09T12:37:16.337Z,2.50
2023-01-09T12:40:25.429Z,4.55
2023-01-09T12:43:05.419Z,3.17
2023-01-09T12:46:10.156Z,2.95
2023-01-09T12:49:30.794Z,5.57
2023-01-09T12:52:12.352Z,2.22
2023-01-09T12:55:14.519Z,8.40
2023-01-09T12:57:56.230Z,1.73
2023-01-09T13:00:43.857Z,5.22
2023-01-09T13:03:50.268Z,3.28
2023-01-09T13:06:20.504Z,4.20
2023-01-09T13:09:10.813Z,9.30
2023-01-09T13:11:47.283Z,5.22
2023-01-09T13:14:20.197Z,6.00
2023-01-09T13:16:51.258Z,4.13
2023-01-09T13:19:29.237Z,3.95
2023-01-09T13:21:58.619Z,1.35
2023-01-09T13:24:35.517Z,1.60
2023-01-09T13:27:11.559Z,2.40
2023-01-09T13:29:47.405Z,1.05
2023-01-09T13:32:23.693Z,1.15
2023-01-09T13:34:57.296Z,1.08
2023-01-09T13:37:29.178Z,0.90
2023-01-09T13:40:06.663Z,0.80
2023-01-09T13:42:45.993Z,1.55
2023-01-09T13:45:25.914Z,1.35
2023-01-09T13:48:09.675Z,1.92
2023-01-09T13:50:38.336Z,1.10
2023-01-09T13:53:18.360Z,0.90
2023-01-09T13:55:58.971Z,1.40
2023-01-09T13:58:36.754Z,2.83
2023-01-09T14:01:24.589Z,1.73
2023-01-09T14:04:21.166Z,1.40
2023-01-09T14:07:16.873Z,1.90
2023-01-09T14:09:53.437Z,1.27
2023-01-09T14:12:22.308Z,1.20
2023-01-09T14:14:53.671Z,2.00
2023-01-09T14:20:08.705Z,4.68
2023-01-09T14:22:50.342Z,4.68
2023-01-09T14:25:28.315Z,1.70
2023-01-09T14:27:59.184Z,1.35
2023-01-09T14:30:27.161Z,1.10
2023-01-09T14:33:02.879Z,3.63
2023-01-09T14:35:44.626Z,1.38
2023-01-09T14:38:24.621Z,2.60
2023-01-09T14:41:06.068Z,1.20
2023-01-09T14:43:46.589Z,1.70
2023-01-09T14:46:18.837Z,1.70
2023-01-09T14:49:15.271Z,1.98
2023-01-09T14:51:47.018Z,3.10
2023-01-09T14:54:38.336Z,2.03
2023-01-09T14:57:30.354Z,2.95
2023-01-09T15:00:11.987Z,3.13
2023-01-09T15:02:41.247Z,1.58
2023-01-09T15:05:17.873Z,1.98
2023-01-09T15:07:52.619Z,3.45
2023-01-09T15:10:25.238Z,2.65
2023-01-09T15:12:56.169Z,1.80
2023-01-09T15:15:25.323Z,1.55
2023-01-09T15:18:06.764Z,2.28
2023-01-09T15:23:05.835Z,2.72
2023-01-09T15:28:32.993Z,1.80
2023-01-09T15:31:02.652Z,7.13
2023-01-09T15:33:31.118Z,2.60
2023-01-09T15:36:02.698Z,3.22
2023-01-09T15:38:32.691Z,4.65
2023-01-09T15:41:08.691Z,3.33
2023-01-09T15:43:41.451Z,4.90
2023-01-09T15:46:11.749Z,2.10
2023-01-09T15:48:39.779Z,2.55
2023-01-09T15:51:11.961Z,4.95
2023-01-09T15:53:45.873Z,1.42
2023-01-09T15:56:30.432Z,1.45
2023-01-09T15:58:59.688Z,1.90
2023-01-09T16:01:35.911Z,3.88
2023-01-09T16:04:16.462Z,2.08
2023-01-09T16:06:50.923Z,1.63
2023-01-09T16:09:29.852Z,4.45
2023-01-09T16:12:02.421Z,4.53
2023-01-09T16:14:41.795Z,6.53
2023-01-09T16:17:17.939Z,5.65
2023-01-09T16:19:51.907Z,3.38
2023-01-09T16:22:26.992Z,4.93
2023-01-09T16:25:03.282Z,2.95
2023-01-09T16:27:33.789Z,3.03
2023-01-09T16:30:06.912Z,3.25
2023-01-09T16:32:53.104Z,4.43
2023-01-09T16:35:23.958Z,4.95
2023-01-09T16:37:51.979Z,5.25
2023-01-09T16:40:26.403Z,2.88
2023-01-09T16:43:08.414Z,4.03
2023-01-09T16:45:41.466Z,3.78
2023-01-09T16:48:21.239Z,6.40
2023-01-09T16:50:49.306Z,3.15
2023-01-09T16:53:23.928Z,3.13
2023-01-09T16:55:53.717Z,7.60
2023-01-09T16:58:31.818Z,2.92
2023-01-09T17:00:59.967Z,4.72
2023-01-09T17:03:28.140Z,10.10
2023-01-09T17:05:59.060Z,9.38
2023-01-09T17:08:31.124Z,3.85
2023-01-09T17:10:59.399Z,8.43
2023-01-09T17:13:27.367Z,5.97
2023-01-09T17:15:56.966Z,7.15
2023-01-09T17:18:26.336Z,5.55
2023-01-09T17:20:56.840Z,3.75
2023-01-09T17:23:25.956Z,3.78
2023-01-09T17:26:16.083Z,3.88
2023-01-09T17:28:49.810Z,7.10
2023-01-09T17:31:18.962Z,4.15
2023-01-09T17:33:46.871Z,3.45
2023-01-09T17:36:32.061Z,3.88
2023-01-09T17:39:00.427Z,3.65
2023-01-09T17:41:30.725Z,2.65
2023-01-09T17:43:59.928Z,5.83
2023-01-09T17:46:37.330Z,7.07
2023-01-09T17:49:06.933Z,5.35
2023-01-09T17:51:34.915Z,2.97
2023-01-09T17:54:03.084Z,6.70
2023-01-09T17:56:34.179Z,7.60
2023-01-09T17:59:02.136Z,3.13
2023-01-09T18:01:30.152Z,3.85
2023-01-09T18:03:58.139Z,2.13
2023-01-09T18:06:26.000Z,1.85
2023-01-09T18:08:55.198Z,2.67
2023-01-09T18:11:24.052Z,4.10
2023-01-09T18:13:56.236Z,4.00
2023-01-09T18:16:27.594Z,2.78
2023-01-09T18:21:27.977Z,1.23
2023-01-09T18:23:57.638Z,3.00
2023-01-09T18:26:25.731Z,3.13
2023-01-09T18:28:58.367Z,3.08
2023-01-09T18:31:28.040Z,4.63
2023-01-09T18:33:58.518Z,4.10
2023-01-09T18:36:29.666Z,2.53
2023-01-09T18:39:00.112Z,4.85
2023-01-09T18:41:28.705Z,3.42
2023-01-09T18:43:59.166Z,4.70
2023-01-09T18:46:31.726Z,2.45
2023-01-09T18:49:02.402Z,3.38
2023-01-09T18:51:31.579Z,4.28
2023-01-09T18:53:59.732Z,5.32
2023-01-09T18:56:28.849Z,7.00
2023-01-09T18:58:57.743Z,6.10
2023-01-09T19:01:28.221Z,6.80
2023-01-09T19:03:57.627Z,6.32
2023-01-09T19:06:27.100Z,6.00
2023-01-09T19:08:55.376Z,6.20
2023-01-09T19:11:23.317Z,7.20
2023-01-09T19:13:51.382Z,9.65
2023-01-09T19:16:19.591Z,9.95
2023-01-09T19:18:47.517Z,10.02
2023-01-09T19:21:19.414Z,9.60
2023-01-09T19:23:48.476Z,11.40
2023-01-09T19:26:20.651Z,6.32
2023-01-09T19:28:50.165Z,10.23
2023-01-09T19:31:18.949Z,10.82
2023-01-09T19:33:46.947Z,6.65
2023-01-09T19:36:14.896Z,6.28
2023-01-09T19:38:43.606Z,8.15
2023-01-09T19:41:15.085Z,7.85
2023-01-09T19:43:43.475Z,11.27
2023-01-09T19:46:15.531Z,7.93
2023-01-09T19:48:43.685Z,12.27
2023-01-09T19:51:16.110Z,8.90
2023-01-09T19:53:44.274Z,11.02
2023-01-09T19:56:23.256Z,9.82
2023-01-09T19:58:58.142Z,11.13
2023-01-09T20:01:28.626Z,11.10
2023-01-09T20:03:57.452Z,8.23
2023-01-09T20:06:26.393Z,8.13
2023-01-09T20:08:56.522Z,7.38
2023-01-09T20:11:27.005Z,14.52
2023-01-09T20:13:55.576Z,8.40
2023-01-09T20:16:29.780Z,7.70
2023-01-09T20:18:59.711Z,12.60
2023-01-09T20:21:29.165Z,12.85
2023-01-09T20:24:00.344Z,10.65
2023-01-09T20:26:29.170Z,11.88
2023-01-09T20:28:57.937Z,11.60
2023-01-09T20:31:31.274Z,13.15
2023-01-09T20:34:00.094Z,9.60
2023-01-09T20:36:30.600Z,7.43
2023-01-09T20:39:01.142Z,9.75
2023-01-09T20:41:30.818Z,7.82
2023-01-09T20:44:06.905Z,12.98
2023-01-09T20:46:38.560Z,6.07
2023-01-09T20:49:09.565Z,18.40
2023-01-09T20:51:43.338Z,13.00
2023-01-09T20:54:11.536Z,8.23
2023-01-09T20:56:45.315Z,9.30
2023-01-09T20:59:21.104Z,12.57
2023-01-09T21:01:50.277Z,8.32
2023-01-09T21:04:18.610Z,10.77
2023-01-09T21:06:48.306Z,9.27
2023-01-09T21:11:45.622Z,9.40
2023-01-09T21:14:13.716Z,17.10
2023-01-09T21:16:41.700Z,10.65
2023-01-09T21:19:09.740Z,10.20
2023-01-09T21:21:37.830Z,14.13
2023-01-09T21:24:07.469Z,15.60
2023-01-09T21:26:35.398Z,11.93
2023-01-09T21:29:08.172Z,11.43
2023-01-09T21:31:36.234Z,14.23
2023-01-09T21:34:08.685Z,12.73
2023-01-09T21:36:36.927Z,16.13
2023-01-09T21:39:08.171Z,11.10
2023-01-09T21:41:55.571Z,15.52
2023-01-09T21:44:41.911Z,11.07
2023-01-09T21:47:09.772Z,11.77
2023-01-09T21:49:41.857Z,19.80
2023-01-09T21:52:10.793Z,14.32
2023-01-09T21:54:39.047Z,13.73
2023-01-09T21:57:07.041Z,13.38
2023-01-09T21:59:35.050Z,13.85
2023-01-09T22:02:02.944Z,12.27
2023-01-09T22:04:31.039Z,12.18
2023-01-09T22:06:59.052Z,12.63
2023-01-09T22:09:27.165Z,11.85
2023-01-09T22:11:55.178Z,18.38
2023-01-09T22:14:23.070Z,12.32
2023-01-09T22:16:51.040Z,9.43
2023-01-09T22:19:19.137Z,10.82
2023-01-09T22:21:48.080Z,18.90
2023-01-09T22:24:17.797Z,8.75
2023-01-09T22:26:46.216Z,14.07
2023-01-09T22:29:16.278Z,14.82
2023-01-09T22:31:44.353Z,16.85
2023-01-09T22:34:17.389Z,10.68
2023-01-09T22:36:46.661Z,9.55
2023-01-09T22:39:17.215Z,9.38
2023-01-09T22:41:50.308Z,12.75
2023-01-09T22:44:19.213Z,16.77
2023-01-09T22:46:47.098Z,14.95
2023-01-09T22:49:14.955Z,6.53
2023-01-09T22:51:42.903Z,12.80
2023-01-09T22:54:10.813Z,18.75
2023-01-09T22:56:38.693Z,13.82
2023-01-09T22:59:06.772Z,14.25
2023-01-09T23:01:34.656Z,10.13
2023-01-09T23:04:04.630Z,11.82
2023-01-09T23:06:32.661Z,20.02
2023-01-09T23:09:00.580Z,11.63
2023-01-09T23:11:48.703Z,11.07
2023-01-09T23:14:17.644Z,14.05
2023-01-09T23:16:45.612Z,12.40
2023-01-09T23:19:16.843Z,7.88
2023-01-09T23:21:47.624Z,10.48
2023-01-09T23:24:17.944Z,13.73
2023-01-09T23:26:46.450Z,9.27
2023-01-09T23:29:14.570Z,10.05
2023-01-09T23:31:42.652Z,12.10
2023-01-09T23:34:15.522Z,13.63
2023-01-09T23:36:44.107Z,6.25
2023-01-09T23:39:12.195Z,11.35
2023-01-09T23:41:59.709Z,11.73
2023-01-09T23:44:52.480Z,6.90
2023-01-09T23:47:20.481Z,9.02
2023-01-09T23:49:48.401Z,6.72
2023-01-09T23:52:16.325Z,5.53
2023-01-09T23:54:44.264Z,5.80
2023-01-09T23:57:12.147Z,5.68
2023-01-09T23:59:40.100Z,6.57
